Time;durP1;ratioP1;P1;durP2;ratioP2;P2;SDS_P1;SDS_P2;PMS_P1;PMS_P2;Temp;Humidity;BMP_temperature;BMP_pressure;BME280_temperature;BME280_humidity;BME280_pressure;Samples;Min_cycle;Max_cycle;Signal;HPM_P1;HPM_P2
2023/08/24 00:02:16;;;;;;;8.13;6.37;;;;;;;;;;5074477;28;20525;-64
2023/08/24 00:04:44;;;;;;;7.23;6.53;;;;;;;;;;5073720;28;20874;-64
2023/08/24 00:07:12;;;;;;;14.20;6.83;;;;;;;;;;5074090;28;20465;-64
2023/08/24 00:09:39;;;;;;;10.60;6.83;;;;;;;;;;5074131;28;20448;-64
2023/08/24 00:12:07;;;;;;;6.73;5.97;;;;;;;;;;5073687;28;20950;-63
2023/08/24 00:14:34;;;;;;;9.77;6.97;;;;;;;;;;5073508;28;20428;-64
2023/08/24 00:17:02;;;;;;;8.20;6.37;;;;;;;;;;5073932;28;20467;-64
2023/08/24 00:19:29;;;;;;;7.97;7.27;;;;;;;;;;5073537;28;20503;-64
2023/08/24 00:21:56;;;;;;;9.87;7.10;;;;;;;;;;5073316;28;20473;-64
2023/08/24 00:24:25;;;;;;;7.13;6.03;;;;;;;;;;5073506;28;20799;-64
2023/08/24 00:26:52;;;;;;;8.40;7.50;;;;;;;;;;5073249;28;20442;-64
2023/08/24 00:29:21;;;;;;;10.70;7.13;;;;;;;;;;5073320;28;20447;-64
2023/08/24 00:31:48;;;;;;;6.13;5.63;;;;;;;;;;5073445;28;20798;-64
2023/08/24 00:34:16;;;;;;;14.60;6.53;;;;;;;;;;5073595;28;20544;-64
2023/08/24 00:36:43;;;;;;;10.33;6.60;;;;;;;;;;5072509;28;20531;-64
2023/08/24 00:39:11;;;;;;;7.07;6.47;;;;;;;;;;5073219;28;20838;-63
2023/08/24 00:41:41;;;;;;;9.30;7.13;;;;;;;;;;5073351;28;20476;-64
2023/08/24 00:44:08;;;;;;;10.27;7.00;;;;;;;;;;5073082;28;20436;-64
2023/08/24 00:46:36;;;;;;;8.40;7.07;;;;;;;;;;5073153;28;20444;-64
2023/08/24 00:49:03;;;;;;;9.77;6.80;;;;;;;;;;5073069;28;20539;-64
2023/08/24 00:51:31;;;;;;;9.30;6.80;;;;;;;;;;5072950;28;20446;-64
2023/08/24 00:53:58;;;;;;;10.10;7.10;;;;;;;;;;5072794;28;20476;-64
2023/08/24 00:56:25;;;;;;;9.17;7.23;;;;;;;;;;5073204;28;20450;-64
2023/08/24 00:58:56;;;;;;;7.60;6.90;;;;;;;;;;5073162;28;20444;-64
2023/08/24 01:01:24;;;;;;;10.47;7.13;;;;;;;;;;5073342;28;20499;-64
2023/08/24 01:03:51;;;;;;;8.57;7.23;;;;;;;;;;5073763;28;20433;-64
2023/08/24 01:06:18;;;;;;;10.63;8.10;;;;;;;;;;5072797;28;20550;-64
2023/08/24 01:08:46;;;;;;;15.37;8.07;;;;;;;;;;5073100;28;20826;-64
2023/08/24 01:11:16;;;;;;;8.60;7.70;;;;;;;;;;5072977;28;20526;-64
2023/08/24 01:13:46;;;;;;;9.83;7.10;;;;;;;;;;5073112;28;20443;-64
2023/08/24 01:16:17;;;;;;;18.10;7.80;;;;;;;;;;5072648;28;20522;-64
2023/08/24 01:18:45;;;;;;;12.90;7.80;;;;;;;;;;5073667;28;20578;-64
2023/08/24 01:21:14;;;;;;;15.57;8.10;;;;;;;;;;5072940;28;20444;-64
2023/08/24 01:23:45;;;;;;;12.80;8.93;;;;;;;;;;5073187;28;20454;-64
2023/08/24 01:26:15;;;;;;;10.73;7.67;;;;;;;;;;5072620;28;20477;-64
2023/08/24 01:28:43;;;;;;;11.60;8.53;;;;;;;;;;5072911;28;20472;-64
2023/08/24 01:31:10;;;;;;;14.27;8.17;;;;;;;;;;5072871;28;20811;-64
2023/08/24 01:33:38;;;;;;;8.10;7.23;;;;;;;;;;5073035;28;20525;-64
2023/08/24 01:36:05;;;;;;;12.37;8.07;;;;;;;;;;5072839;28;20437;-64
2023/08/24 01:38:32;;;;;;;13.07;7.50;;;;;;;;;;5072983;28;20455;-64
2023/08/24 01:41:06;;;;;;;10.90;7.67;;;;;;;;;;5072603;28;20562;-64
2023/08/24 01:43:36;;;;;;;12.33;7.57;;;;;;;;;;5072556;28;20423;-64
2023/08/24 01:46:05;;;;;;;8.70;7.87;;;;;;;;;;5072506;28;20467;-63
2023/08/24 01:48:33;;;;;;;10.20;8.47;;;;;;;;;;5076785;28;20435;-64
2023/08/24 01:51:01;;;;;;;9.17;7.90;;;;;;;;;;5076293;28;20531;-64
2023/08/24 01:53:29;;;;;;;11.97;8.73;;;;;;;;;;5076569;28;20569;-64
2023/08/24 01:55:56;;;;;;;14.43;9.20;;;;;;;;;;5076609;28;20538;-64
2023/08/24 01:58:24;;;;;;;13.80;7.57;;;;;;;;;;5076440;28;20531;-64
2023/08/24 02:00:52;;;;;;;10.00;8.13;;;;;;;;;;5077192;28;20477;-64
2023/08/24 02:03:20;;;;;;;15.37;9.70;;;;;;;;;;5076380;28;20470;-64
2023/08/24 02:05:47;;;;;;;15.07;9.53;;;;;;;;;;5076383;28;20525;-64
2023/08/24 02:08:14;;;;;;;15.10;9.30;;;;;;;;;;5076280;28;20442;-64
2023/08/24 02:10:41;;;;;;;10.10;9.10;;;;;;;;;;5075962;28;20441;-64
2023/08/24 02:13:08;;;;;;;15.07;8.10;;;;;;;;;;5076339;28;20478;-64
2023/08/24 02:15:36;;;;;;;11.43;9.20;;;;;;;;;;5075883;28;20444;-64
2023/08/24 02:18:04;;;;;;;11.50;9.00;;;;;;;;;;5076032;28;20811;-64
2023/08/24 02:20:32;;;;;;;9.97;8.40;;;;;;;;;;5076328;28;20577;-64
2023/08/24 02:22:59;;;;;;;13.53;9.03;;;;;;;;;;5075696;28;20537;-64
2023/08/24 02:25:26;;;;;;;17.83;9.80;;;;;;;;;;5075692;28;20959;-64
2023/08/24 02:27:53;;;;;;;13.23;9.00;;;;;;;;;;5075857;28;20787;-64
2023/08/24 02:30:20;;;;;;;11.87;9.37;;;;;;;;;;5075897;28;20483;-64
2023/08/24 02:32:47;;;;;;;15.40;9.23;;;;;;;;;;5075695;28;20445;-64
2023/08/24 02:35:17;;;;;;;10.30;9.30;;;;;;;;;;5075782;28;20471;-64
2023/08/24 02:37:44;;;;;;;11.03;9.90;;;;;;;;;;5075328;28;20470;-64
2023/08/24 02:40:12;;;;;;;13.90;11.00;;;;;;;;;;5075328;28;20473;-64
2023/08/24 02:42:39;;;;;;;13.90;10.27;;;;;;;;;;5075647;28;20494;-64
2023/08/24 02:45:07;;;;;;;16.53;11.03;;;;;;;;;;5075813;28;20451;-64
2023/08/24 02:47:34;;;;;;;11.60;10.33;;;;;;;;;;5075574;28;20471;-64
2023/08/24 02:50:01;;;;;;;11.80;10.60;;;;;;;;;;5075318;28;20444;-64
2023/08/24 02:52:30;;;;;;;14.50;10.53;;;;;;;;;;5075548;28;20454;-64
2023/08/24 02:54:57;;;;;;;15.13;10.80;;;;;;;;;;5075829;28;20481;-64
2023/08/24 02:57:25;;;;;;;11.00;9.67;;;;;;;;;;5074799;28;20445;-64
2023/08/24 02:59:53;;;;;;;13.33;11.27;;;;;;;;;;5075038;28;20502;-64
2023/08/24 03:02:20;;;;;;;16.57;11.10;;;;;;;;;;5074938;28;20498;-64
2023/08/24 03:04:47;;;;;;;13.10;10.57;;;;;;;;;;5075022;28;20974;-64
2023/08/24 03:07:14;;;;;;;19.57;11.43;;;;;;;;;;5075171;28;20436;-65
2023/08/24 03:09:43;;;;;;;13.13;11.10;;;;;;;;;;5074889;28;20440;-64
2023/08/24 03:12:10;;;;;;;12.63;10.77;;;;;;;;;;5074846;28;20958;-64
2023/08/24 03:14:37;;;;;;;13.03;10.53;;;;;;;;;;5075085;28;20444;-64
2023/08/24 03:17:05;;;;;;;11.30;10.20;;;;;;;;;;5074939;28;20529;-64
2023/08/24 03:19:32;;;;;;;13.63;10.57;;;;;;;;;;5074612;28;20538;-64
2023/08/24 03:21:59;;;;;;;11.70;10.60;;;;;;;;;;5075076;28;20459;-65
2023/08/24 03:24:27;;;;;;;14.20;10.10;;;;;;;;;;5074932;28;20530;-64
2023/08/24 03:26:55;;;;;;;12.53;11.23;;;;;;;;;;5074540;28;20442;-64
2023/08/24 03:29:22;;;;;;;14.93;10.97;;;;;;;;;;5074744;28;20517;-64
2023/08/24 03:31:50;;;;;;;11.93;10.70;;;;;;;;;;5074981;28;20449;-64
2023/08/24 03:34:17;;;;;;;14.10;11.30;;;;;;;;;;5074289;28;20443;-63
2023/08/24 03:36:44;;;;;;;12.87;11.27;;;;;;;;;;5074679;28;20442;-63
2023/08/24 03:39:11;;;;;;;13.70;11.77;;;;;;;;;;5074224;28;20526;-65
2023/08/24 03:41:39;;;;;;;14.37;12.80;;;;;;;;;;5074469;28;20478;-64
2023/08/24 03:44:07;;;;;;;14.40;12.23;;;;;;;;;;5074612;28;20445;-64
2023/08/24 03:46:34;;;;;;;14.70;13.03;;;;;;;;;;5074136;28;20918;-64
2023/08/24 03:49:02;;;;;;;13.40;12.10;;;;;;;;;;5082266;28;20435;-64
2023/08/24 03:51:29;;;;;;;13.50;12.20;;;;;;;;;;5094470;28;20521;-63
2023/08/24 03:53:56;;;;;;;18.73;13.50;;;;;;;;;;5093799;28;20573;-63
2023/08/24 03:56:23;;;;;;;15.17;12.67;;;;;;;;;;5093943;28;20446;-63
2023/08/24 03:58:51;;;;;;;23.93;15.53;;;;;;;;;;5093427;28;20464;-63
2023/08/24 04:01:19;;;;;;;15.07;13.47;;;;;;;;;;5094134;28;20511;-63
2023/08/24 04:03:46;;;;;;;15.83;14.30;;;;;;;;;;5094081;28;20858;-64
2023/08/24 04:06:13;;;;;;;18.10;14.43;;;;;;;;;;5094233;28;20470;-64
2023/08/24 04:08:41;;;;;;;20.17;14.20;;;;;;;;;;5093713;28;21026;-63
2023/08/24 04:11:08;;;;;;;19.10;15.23;;;;;;;;;;5094011;28;20446;-63
2023/08/24 04:13:35;;;;;;;18.60;16.30;;;;;;;;;;5093712;28;20446;-63
2023/08/24 04:16:03;;;;;;;17.33;15.73;;;;;;;;;;5093729;28;20964;-63
2023/08/24 04:18:32;;;;;;;18.50;16.50;;;;;;;;;;5093467;28;20448;-63
2023/08/24 04:20:59;;;;;;;19.70;17.10;;;;;;;;;;5093348;28;20994;-62
2023/08/24 04:23:26;;;;;;;18.37;16.57;;;;;;;;;;5093877;28;20450;-63
2023/08/24 04:25:54;;;;;;;18.10;15.60;;;;;;;;;;5093874;28;20441;-63
2023/08/24 04:28:21;;;;;;;20.80;16.40;;;;;;;;;;5093744;28;20485;-63
2023/08/24 04:30:52;;;;;;;18.37;15.37;;;;;;;;;;5093506;28;20455;-63
2023/08/24 04:33:19;;;;;;;16.87;15.27;;;;;;;;;;5093612;28;20832;-63
2023/08/24 04:35:48;;;;;;;17.00;15.40;;;;;;;;;;5093288;28;20522;-63
2023/08/24 04:38:16;;;;;;;25.23;16.33;;;;;;;;;;5093482;28;20458;-63
2023/08/24 04:40:53;;;;;;;18.67;16.77;;;;;;;;;;5093456;28;20924;-63
2023/08/24 04:43:20;;;;;;;28.70;24.67;;;;;;;;;;5093004;28;20440;-63
2023/08/24 04:45:48;;;;;;;19.90;17.90;;;;;;;;;;5093044;28;20492;-64
2023/08/24 04:48:16;;;;;;;19.80;17.90;;;;;;;;;;5093305;28;20442;-63
2023/08/24 04:50:44;;;;;;;26.07;19.10;;;;;;;;;;5092549;28;20443;-64
2023/08/24 04:53:12;;;;;;;21.43;17.93;;;;;;;;;;5093373;28;20521;-63
2023/08/24 04:55:39;;;;;;;19.70;17.60;;;;;;;;;;5093014;28;20430;-63
2023/08/24 04:58:06;;;;;;;20.73;18.63;;;;;;;;;;5093052;28;20947;-62
2023/08/24 05:00:34;;;;;;;21.33;18.97;;;;;;;;;;5093139;28;20513;-62
2023/08/24 05:03:02;;;;;;;18.90;16.80;;;;;;;;;;5093326;28;20955;-62
2023/08/24 05:05:31;;;;;;;19.97;17.90;;;;;;;;;;5092847;28;20534;-62
2023/08/24 05:07:58;;;;;;;18.07;15.87;;;;;;;;;;5092885;28;20512;-62
2023/08/24 05:10:27;;;;;;;20.03;16.37;;;;;;;;;;5092948;28;20449;-62
2023/08/24 05:12:54;;;;;;;18.63;16.83;;;;;;;;;;5093275;28;20796;-62
2023/08/24 05:15:26;;;;;;;17.27;15.63;;;;;;;;;;5093031;28;20469;-62
2023/08/24 05:17:54;;;;;;;17.40;15.70;;;;;;;;;;5093370;28;20501;-62
2023/08/24 05:20:22;;;;;;;24.90;16.87;;;;;;;;;;5093032;28;20447;-62
2023/08/24 05:22:49;;;;;;;17.67;16.00;;;;;;;;;;5092568;28;20467;-62
2023/08/24 05:25:17;;;;;;;17.10;15.60;;;;;;;;;;5093070;28;20525;-62
2023/08/24 05:27:46;;;;;;;16.90;15.13;;;;;;;;;;5092973;28;20444;-62
2023/08/24 05:30:13;;;;;;;17.13;15.60;;;;;;;;;;5092434;28;20445;-62
2023/08/24 05:32:41;;;;;;;16.33;14.40;;;;;;;;;;5092909;28;20460;-62
2023/08/24 05:35:08;;;;;;;18.07;15.03;;;;;;;;;;5092822;28;20453;-62
2023/08/24 05:37:36;;;;;;;19.00;16.37;;;;;;;;;;5092829;28;20525;-62
2023/08/24 05:40:04;;;;;;;17.80;16.03;;;;;;;;;;5092447;28;20996;-62
2023/08/24 05:42:32;;;;;;;20.40;17.03;;;;;;;;;;5092604;28;20482;-62
2023/08/24 05:45:00;;;;;;;18.37;16.47;;;;;;;;;;5091918;28;20424;-62
2023/08/24 05:47:27;;;;;;;18.50;16.80;;;;;;;;;;5092595;28;20962;-62
2023/08/24 05:49:55;;;;;;;17.87;16.10;;;;;;;;;;5092229;28;20439;-62
2023/08/24 05:52:22;;;;;;;25.17;17.47;;;;;;;;;;5092421;28;20443;-62
2023/08/24 05:54:49;;;;;;;18.70;16.97;;;;;;;;;;5092170;28;20522;-62
2023/08/24 05:57:16;;;;;;;18.93;17.10;;;;;;;;;;5092606;28;20452;-62
2023/08/24 05:59:43;;;;;;;22.40;18.40;;;;;;;;;;5092141;28;20502;-62
2023/08/24 06:02:12;;;;;;;23.80;18.90;;;;;;;;;;5092099;28;20994;-62
2023/08/24 06:04:39;;;;;;;17.87;16.17;;;;;;;;;;5092616;28;20452;-62
2023/08/24 06:07:06;;;;;;;19.63;17.83;;;;;;;;;;5092526;28;20440;-62
2023/08/24 06:09:34;;;;;;;21.10;18.93;;;;;;;;;;5092891;28;20449;-62
2023/08/24 06:12:01;;;;;;;22.20;19.60;;;;;;;;;;5092197;28;20916;-62
2023/08/24 06:14:29;;;;;;;23.80;21.50;;;;;;;;;;5092506;28;20808;-62
2023/08/24 06:16:56;;;;;;;29.07;19.90;;;;;;;;;;5092487;28;20536;-62
2023/08/24 06:19:24;;;;;;;22.57;20.57;;;;;;;;;;5092199;28;20446;-63
2023/08/24 06:21:51;;;;;;;24.20;21.67;;;;;;;;;;5092468;28;20477;-62
2023/08/24 06:24:19;;;;;;;23.40;21.30;;;;;;;;;;5091848;28;20539;-63
2023/08/24 06:26:46;;;;;;;25.63;23.00;;;;;;;;;;5092503;28;20529;-62
2023/08/24 06:29:13;;;;;;;28.60;21.20;;;;;;;;;;5091950;28;20437;-62
2023/08/24 06:31:40;;;;;;;24.23;21.93;;;;;;;;;;5092060;28;20446;-62
2023/08/24 06:34:07;;;;;;;23.30;20.90;;;;;;;;;;5093781;28;20448;-62
2023/08/24 06:36:36;;;;;;;23.80;21.30;;;;;;;;;;5095882;28;20445;-63
2023/08/24 06:39:04;;;;;;;28.67;22.57;;;;;;;;;;5095889;28;20525;-62
2023/08/24 06:41:34;;;;;;;25.37;22.97;;;;;;;;;;5095434;28;20477;-62
2023/08/24 06:44:01;;;;;;;25.03;22.57;;;;;;;;;;5095825;28;20877;-62
2023/08/24 06:46:28;;;;;;;24.33;21.90;;;;;;;;;;5095741;28;20478;-62
2023/08/24 06:48:55;;;;;;;25.00;22.57;;;;;;;;;;5096082;28;20841;-62
2023/08/24 06:51:23;;;;;;;24.17;21.63;;;;;;;;;;5095726;28;20474;-62
2023/08/24 06:53:51;;;;;;;24.60;21.80;;;;;;;;;;5095638;28;20472;-62
2023/08/24 06:56:18;;;;;;;26.53;22.87;;;;;;;;;;5095042;28;21003;-62
2023/08/24 06:58:46;;;;;;;24.87;22.47;;;;;;;;;;5095426;28;20444;-62
2023/08/24 07:01:13;;;;;;;24.50;22.20;;;;;;;;;;5094966;28;20484;-62
2023/08/24 07:03:40;;;;;;;23.73;21.43;;;;;;;;;;5095119;28;20924;-62
2023/08/24 07:06:08;;;;;;;25.10;22.60;;;;;;;;;;5095495;28;20522;-62
2023/08/24 07:08:35;;;;;;;23.47;21.27;;;;;;;;;;5095900;28;20572;-62
2023/08/24 07:11:04;;;;;;;22.83;20.70;;;;;;;;;;5095374;28;20465;-62
2023/08/24 07:13:31;;;;;;;21.90;19.87;;;;;;;;;;5095382;28;20439;-62
2023/08/24 07:15:58;;;;;;;23.97;21.50;;;;;;;;;;5094920;28;20446;-62
2023/08/24 07:18:25;;;;;;;24.10;21.67;;;;;;;;;;5095232;28;20450;-62
2023/08/24 07:20:52;;;;;;;22.03;19.90;;;;;;;;;;5094864;28;20435;-62
2023/08/24 07:23:20;;;;;;;20.57;18.60;;;;;;;;;;5095665;28;20855;-62
2023/08/24 07:25:48;;;;;;;21.90;19.60;;;;;;;;;;5094744;28;20443;-62
2023/08/24 07:28:16;;;;;;;24.07;19.27;;;;;;;;;;5095096;28;20443;-62
2023/08/24 07:30:44;;;;;;;22.57;20.37;;;;;;;;;;5094518;28;20471;-62
2023/08/24 07:33:11;;;;;;;21.07;19.20;;;;;;;;;;5094840;28;20808;-62
2023/08/24 07:35:39;;;;;;;21.80;19.50;;;;;;;;;;5094782;28;20462;-62
2023/08/24 07:38:06;;;;;;;20.37;18.37;;;;;;;;;;5094554;28;21013;-62
2023/08/24 07:40:33;;;;;;;26.40;20.90;;;;;;;;;;5094809;28;20465;-62
2023/08/24 07:43:00;;;;;;;20.73;18.83;;;;;;;;;;5094369;28;20478;-62
2023/08/24 07:45:29;;;;;;;21.97;19.80;;;;;;;;;;5093944;28;20439;-62
2023/08/24 07:47:56;;;;;;;20.70;18.70;;;;;;;;;;5094693;28;20534;-62
2023/08/24 07:50:23;;;;;;;20.67;18.73;;;;;;;;;;5094198;28;20519;-62
2023/08/24 07:52:50;;;;;;;21.20;19.20;;;;;;;;;;5093878;28;20892;-62
2023/08/24 07:55:18;;;;;;;21.80;19.50;;;;;;;;;;5094490;28;20483;-63
2023/08/24 07:57:45;;;;;;;21.30;19.10;;;;;;;;;;5093984;28;20944;-63
2023/08/24 08:00:14;;;;;;;21.10;19.27;;;;;;;;;;5094306;28;20443;-63
2023/08/24 08:02:42;;;;;;;21.97;19.73;;;;;;;;;;5094278;28;20830;-63
2023/08/24 08:05:10;;;;;;;21.70;19.47;;;;;;;;;;5094246;28;20526;-65
2023/08/24 08:07:37;;;;;;;20.53;17.60;;;;;;;;;;5093872;28;20811;-64
2023/08/24 08:10:07;;;;;;;17.23;15.60;;;;;;;;;;5094373;28;20465;-63
2023/08/24 08:12:34;;;;;;;18.17;16.40;;;;;;;;;;5093644;28;20442;-63
2023/08/24 08:15:01;;;;;;;19.00;17.20;;;;;;;;;;5093819;28;20441;-63
2023/08/24 08:17:30;;;;;;;21.70;19.20;;;;;;;;;;5094204;28;20693;-63
2023/08/24 08:19:59;;;;;;;17.13;15.53;;;;;;;;;;5093738;28;20489;-63
2023/08/24 08:22:26;;;;;;;19.33;17.30;;;;;;;;;;5093838;28;20980;-63
2023/08/24 08:24:56;;;;;;;21.97;17.70;;;;;;;;;;5094174;28;20511;-63
2023/08/24 08:27:23;;;;;;;19.43;17.33;;;;;;;;;;5093622;28;20440;-62
2023/08/24 08:29:50;;;;;;;18.53;16.97;;;;;;;;;;5093674;28;20534;-62
2023/08/24 08:32:17;;;;;;;18.50;16.90;;;;;;;;;;5093692;28;20533;-63
2023/08/24 08:34:45;;;;;;;19.20;17.50;;;;;;;;;;5093454;28;20465;-62
2023/08/24 08:37:13;;;;;;;17.83;16.20;;;;;;;;;;5093664;28;20466;-63
2023/08/24 08:39:40;;;;;;;17.20;15.73;;;;;;;;;;5093373;28;20523;-62
2023/08/24 08:42:13;;;;;;;17.63;16.00;;;;;;;;;;5093140;28;20472;-62
2023/08/24 08:44:40;;;;;;;17.43;15.70;;;;;;;;;;5093294;28;20427;-62
2023/08/24 08:47:08;;;;;;;17.53;15.73;;;;;;;;;;5093810;28;20519;-62
2023/08/24 08:49:36;;;;;;;17.53;15.70;;;;;;;;;;5093555;28;20435;-62
2023/08/24 08:52:03;;;;;;;17.67;16.07;;;;;;;;;;5093071;28;20437;-62
2023/08/24 08:54:32;;;;;;;15.97;14.37;;;;;;;;;;5093201;28;20475;-62
2023/08/24 08:57:00;;;;;;;15.17;13.80;;;;;;;;;;5092459;28;20424;-63
2023/08/24 08:59:30;;;;;;;14.80;13.37;;;;;;;;;;5093294;28;20441;-62
2023/08/24 09:01:57;;;;;;;13.90;12.60;;;;;;;;;;5093459;28;20810;-62
2023/08/24 09:04:25;;;;;;;13.87;12.20;;;;;;;;;;5093358;28;20491;-63
2023/08/24 09:06:52;;;;;;;14.03;12.40;;;;;;;;;;5093223;28;20428;-66
2023/08/24 09:09:20;;;;;;;13.17;11.77;;;;;;;;;;5093591;28;20439;-62
2023/08/24 09:11:48;;;;;;;13.23;11.93;;;;;;;;;;5093137;28;20441;-63
2023/08/24 09:14:16;;;;;;;12.37;11.17;;;;;;;;;;5093181;28;20521;-62
2023/08/24 09:16:43;;;;;;;13.57;10.83;;;;;;;;;;5092795;28;20532;-63
2023/08/24 09:19:12;;;;;;;11.37;10.23;;;;;;;;;;5092816;28;20433;-62
2023/08/24 09:21:41;;;;;;;12.53;11.10;;;;;;;;;;5092853;28;20462;-63
2023/08/24 09:24:09;;;;;;;11.47;10.43;;;;;;;;;;5093149;28;20455;-63
2023/08/24 09:26:42;;;;;;;17.20;10.30;;;;;;;;;;5092723;28;20446;-63
2023/08/24 09:29:14;;;;;;;10.37;9.00;;;;;;;;;;5092967;28;20435;-63
2023/08/24 09:31:43;;;;;;;11.33;9.67;;;;;;;;;;5092645;28;20527;-63
2023/08/24 09:34:11;;;;;;;9.80;8.80;;;;;;;;;;5093000;28;20446;-61
2023/08/24 09:36:38;;;;;;;8.37;7.57;;;;;;;;;;5092630;28;20443;-62
2023/08/24 09:39:06;;;;;;;9.63;8.67;;;;;;;;;;5092738;28;20843;-62
2023/08/24 09:41:43;;;;;;;11.33;8.97;;;;;;;;;;5092828;28;20806;-62
2023/08/24 09:44:11;;;;;;;10.30;8.70;;;;;;;;;;5092656;28;20513;-61
2023/08/24 09:46:40;;;;;;;10.13;8.93;;;;;;;;;;5093141;28;20470;-62
2023/08/24 09:49:08;;;;;;;9.57;8.30;;;;;;;;;;5092554;28;20780;-61
2023/08/24 09:51:36;;;;;;;9.10;8.20;;;;;;;;;;5092359;28;20530;-62
2023/08/24 09:54:08;;;;;;;7.83;7.00;;;;;;;;;;5092575;28;20470;-62
2023/08/24 09:56:36;;;;;;;11.17;8.77;;;;;;;;;;5092820;28;20423;-62
2023/08/24 09:59:05;;;;;;;14.07;10.03;;;;;;;;;;5092778;28;20458;-62
2023/08/24 10:01:33;;;;;;;18.97;12.43;;;;;;;;;;5093254;28;20526;-62
2023/08/24 10:04:03;;;;;;;13.10;11.40;;;;;;;;;;5092518;28;20582;-62
2023/08/24 10:06:30;;;;;;;18.43;11.30;;;;;;;;;;5092855;28;20547;-62
2023/08/24 10:09:00;;;;;;;11.03;9.97;;;;;;;;;;5095907;28;21009;-62
2023/08/24 10:11:28;;;;;;;21.00;10.97;;;;;;;;;;5096511;28;20532;-62
2023/08/24 10:13:59;;;;;;;17.03;10.30;;;;;;;;;;5096613;28;20446;-62
2023/08/24 10:16:28;;;;;;;10.97;9.60;;;;;;;;;;5096665;28;20424;-62
2023/08/24 10:18:56;;;;;;;13.73;9.50;;;;;;;;;;5096077;28;20480;-63
2023/08/24 10:21:26;;;;;;;9.60;8.60;;;;;;;;;;5096187;28;20993;-63
2023/08/24 10:23:53;;;;;;;9.13;8.10;;;;;;;;;;5096294;28;20970;-63
2023/08/24 10:26:21;;;;;;;15.23;8.77;;;;;;;;;;5096229;28;20500;-63
2023/08/24 10:28:49;;;;;;;8.97;8.00;;;;;;;;;;5095905;28;20494;-62
2023/08/24 10:31:16;;;;;;;8.97;7.57;;;;;;;;;;5096238;28;20515;-63
2023/08/24 10:33:44;;;;;;;7.40;6.80;;;;;;;;;;5096076;28;20442;-63
2023/08/24 10:36:11;;;;;;;9.27;6.63;;;;;;;;;;5096052;28;20450;-63
2023/08/24 10:38:43;;;;;;;14.73;7.83;;;;;;;;;;5096079;28;20474;-63
2023/08/24 10:41:12;;;;;;;9.53;8.10;;;;;;;;;;5096293;28;20433;-62
2023/08/24 10:43:40;;;;;;;12.73;8.20;;;;;;;;;;5095870;28;20982;-62
2023/08/24 10:46:13;;;;;;;7.73;7.03;;;;;;;;;;5095544;28;20959;-63
2023/08/24 10:48:55;;;;;;;10.47;7.00;;;;;;;;;;5095999;28;20510;-62
2023/08/24 10:51:26;;;;;;;14.37;7.67;;;;;;;;;;5095452;28;20525;-62
2023/08/24 10:53:55;;;;;;;6.47;5.87;;;;;;;;;;5095260;28;20477;-63
2023/08/24 10:56:22;;;;;;;12.20;6.07;;;;;;;;;;5095192;28;20469;-63
2023/08/24 10:59:10;;;;;;;11.07;6.60;;;;;;;;;;5095585;28;20533;-63
2023/08/24 11:01:40;;;;;;;8.37;5.77;;;;;;;;;;5095370;28;20433;-63
2023/08/24 11:04:07;;;;;;;8.90;6.47;;;;;;;;;;5095090;28;20472;-63
2023/08/24 11:06:35;;;;;;;24.60;6.50;;;;;;;;;;5095248;28;20440;-63
2023/08/24 11:09:13;;;;;;;12.20;6.67;;;;;;;;;;5095435;28;20911;-63
2023/08/24 11:11:41;;;;;;;8.70;5.50;;;;;;;;;;5095148;28;20432;-63
2023/08/24 11:14:16;;;;;;;8.37;5.90;;;;;;;;;;5094959;28;20439;-63
2023/08/24 11:16:44;;;;;;;7.53;5.50;;;;;;;;;;5095516;28;20539;-63
2023/08/24 11:19:12;;;;;;;6.80;5.33;;;;;;;;;;5094030;28;20473;-63
2023/08/24 11:21:39;;;;;;;7.33;5.70;;;;;;;;;;5094881;28;20435;-64
2023/08/24 11:24:07;;;;;;;10.70;5.50;;;;;;;;;;5095511;28;20486;-62
2023/08/24 11:26:36;;;;;;;7.57;6.27;;;;;;;;;;5095134;28;20439;-63
2023/08/24 11:29:06;;;;;;;10.60;6.00;;;;;;;;;;5094628;28;20920;-63
2023/08/24 11:31:35;;;;;;;6.63;5.57;;;;;;;;;;5095751;28;20533;-62
2023/08/24 11:34:02;;;;;;;6.33;5.73;;;;;;;;;;5094838;28;20433;-62
2023/08/24 11:36:30;;;;;;;16.27;6.20;;;;;;;;;;5094558;28;20450;-62
2023/08/24 11:38:58;;;;;;;5.53;5.03;;;;;;;;;;5094301;28;20535;-63
2023/08/24 11:41:25;;;;;;;6.30;5.70;;;;;;;;;;5094697;28;20931;-63
2023/08/24 11:44:01;;;;;;;11.83;5.20;;;;;;;;;;5094455;28;20562;-64
2023/08/24 11:46:30;;;;;;;7.20;5.20;;;;;;;;;;5094753;28;20818;-63
2023/08/24 11:48:59;;;;;;;9.97;5.83;;;;;;;;;;5094432;28;20433;-63
2023/08/24 11:51:26;;;;;;;8.37;5.77;;;;;;;;;;5092545;28;20444;-63
2023/08/24 11:53:53;;;;;;;8.50;6.00;;;;;;;;;;5078191;28;20942;-63
2023/08/24 11:56:21;;;;;;;13.90;12.60;;;;;;;;;;5093834;28;20445;-63
2023/08/24 11:58:50;;;;;;;7.80;6.30;;;;;;;;;;5094337;28;20411;-63
2023/08/24 12:01:19;;;;;;;7.40;6.00;;;;;;;;;;5093973;28;20805;-62
2023/08/24 12:03:47;;;;;;;7.40;5.23;;;;;;;;;;5093962;28;20475;-62
2023/08/24 12:06:15;;;;;;;6.20;5.57;;;;;;;;;;5093953;28;20519;-62
2023/08/24 12:08:42;;;;;;;5.93;5.47;;;;;;;;;;5093993;28;20602;-62
2023/08/24 12:11:14;;;;;;;6.83;6.23;;;;;;;;;;5093918;28;20475;-62
2023/08/24 12:13:45;;;;;;;6.30;5.70;;;;;;;;;;5094012;28;20542;-62
2023/08/24 12:16:13;;;;;;;7.03;6.27;;;;;;;;;;5092115;28;20423;-62
2023/08/24 12:18:49;;;;;;;6.53;5.70;;;;;;;;;;5073694;28;20431;-62
2023/08/24 12:21:16;;;;;;;7.80;6.40;;;;;;;;;;5073329;28;20410;-63
2023/08/24 12:23:44;;;;;;;8.97;5.03;;;;;;;;;;5076587;28;20475;-62
2023/08/24 12:26:18;;;;;;;9.00;5.30;;;;;;;;;;5093325;28;20450;-63
2023/08/24 12:28:50;;;;;;;7.50;5.33;;;;;;;;;;5093945;28;20481;-62
2023/08/24 12:31:18;;;;;;;7.60;5.40;;;;;;;;;;5093327;28;20911;-63
2023/08/24 12:33:46;;;;;;;6.00;5.03;;;;;;;;;;5093787;28;20526;-62
2023/08/24 12:36:14;;;;;;;8.97;6.13;;;;;;;;;;5093293;28;20446;-62
2023/08/24 12:38:43;;;;;;;11.43;4.90;;;;;;;;;;5093657;28;20538;-62
2023/08/24 12:41:10;;;;;;;6.37;5.40;;;;;;;;;;5093459;28;20421;-62
2023/08/24 12:43:37;;;;;;;7.17;4.93;;;;;;;;;;5093452;28;20823;-62
2023/08/24 12:46:04;;;;;;;13.43;6.00;;;;;;;;;;5093154;28;20462;-62
2023/08/24 12:48:31;;;;;;;6.87;5.73;;;;;;;;;;5093425;28;20535;-62
2023/08/24 12:50:58;;;;;;;12.87;6.63;;;;;;;;;;5093084;28;20433;-62
2023/08/24 12:53:27;;;;;;;9.37;8.47;;;;;;;;;;5093180;28;20451;-62
2023/08/24 12:55:54;;;;;;;8.43;4.73;;;;;;;;;;5093549;28;20434;-62
2023/08/24 12:58:21;;;;;;;11.43;4.33;;;;;;;;;;5093438;28;20454;-62
2023/08/24 13:00:49;;;;;;;6.50;3.97;;;;;;;;;;5092902;28;20524;-62
2023/08/24 13:03:16;;;;;;;7.30;4.43;;;;;;;;;;5093140;28;20857;-62
2023/08/24 13:05:43;;;;;;;4.77;3.97;;;;;;;;;;5093103;28;20508;-62
2023/08/24 13:08:10;;;;;;;6.60;4.03;;;;;;;;;;5092987;28;20500;-61
2023/08/24 13:10:39;;;;;;;5.83;4.93;;;;;;;;;;5092716;28;20969;-62
2023/08/24 13:13:06;;;;;;;4.33;3.70;;;;;;;;;;5093227;28;20512;-62
2023/08/24 13:15:33;;;;;;;7.13;4.47;;;;;;;;;;5092962;28;20425;-62
2023/08/24 13:18:01;;;;;;;9.20;8.37;;;;;;;;;;5093318;28;20443;-63
2023/08/24 13:20:28;;;;;;;6.30;4.30;;;;;;;;;;5092963;28;20849;-62
2023/08/24 13:22:55;;;;;;;5.30;3.90;;;;;;;;;;5092999;28;20541;-62
2023/08/24 13:25:22;;;;;;;3.87;3.57;;;;;;;;;;5092624;28;20791;-62
2023/08/24 13:27:52;;;;;;;7.27;4.00;;;;;;;;;;5092872;28;20510;-62
2023/08/24 13:30:20;;;;;;;3.90;3.60;;;;;;;;;;5092423;28;20500;-62
2023/08/24 13:32:47;;;;;;;9.90;4.20;;;;;;;;;;5093198;28;20474;-62
2023/08/24 13:35:14;;;;;;;4.03;3.73;;;;;;;;;;5092544;28;20457;-62
2023/08/24 13:37:41;;;;;;;6.50;3.70;;;;;;;;;;5092575;28;20475;-62
2023/08/24 13:40:09;;;;;;;5.00;4.10;;;;;;;;;;5093302;28;20434;-62
2023/08/24 13:42:36;;;;;;;5.37;4.30;;;;;;;;;;5093664;28;20536;-62
2023/08/24 13:45:05;;;;;;;4.50;3.83;;;;;;;;;;5097695;28;21016;-62
2023/08/24 13:47:33;;;;;;;7.07;4.13;;;;;;;;;;5096926;28;20417;-61
2023/08/24 13:50:00;;;;;;;6.27;4.80;;;;;;;;;;5097012;28;20504;-61
2023/08/24 13:52:27;;;;;;;7.90;4.90;;;;;;;;;;5096635;28;20442;-63
2023/08/24 13:54:54;;;;;;;5.37;4.13;;;;;;;;;;5096594;28;20478;-63
2023/08/24 13:57:22;;;;;;;6.80;4.67;;;;;;;;;;5096900;28;20421;-62
2023/08/24 13:59:49;;;;;;;9.37;5.40;;;;;;;;;;5096550;28;20439;-62
2023/08/24 14:02:17;;;;;;;6.13;5.53;;;;;;;;;;5096507;28;20453;-61
2023/08/24 14:04:45;;;;;;;8.80;5.63;;;;;;;;;;5096318;28;21012;-61
2023/08/24 14:07:12;;;;;;;9.27;6.00;;;;;;;;;;5096940;28;20542;-61
2023/08/24 14:09:39;;;;;;;10.97;6.40;;;;;;;;;;5096633;28;20478;-61
2023/08/24 14:12:06;;;;;;;6.60;6.00;;;;;;;;;;5094489;28;20796;-61
2023/08/24 14:14:34;;;;;;;8.40;7.17;;;;;;;;;;5075065;28;20518;-61
2023/08/24 14:17:01;;;;;;;15.17;8.90;;;;;;;;;;5075501;28;20464;-61
2023/08/24 14:19:30;;;;;;;9.70;8.83;;;;;;;;;;5076099;28;20925;-61
2023/08/24 14:21:58;;;;;;;10.83;6.10;;;;;;;;;;5075713;28;20423;-61
2023/08/24 14:24:25;;;;;;;7.97;6.40;;;;;;;;;;5075517;28;20502;-61
2023/08/24 14:26:52;;;;;;;9.20;5.10;;;;;;;;;;5075810;28;20948;-62
2023/08/24 14:29:19;;;;;;;7.17;5.37;;;;;;;;;;5076084;28;20440;-62
2023/08/24 14:31:46;;;;;;;10.30;5.00;;;;;;;;;;5076036;28;20535;-61
2023/08/24 14:34:14;;;;;;;9.23;5.00;;;;;;;;;;5075694;28;20524;-62